sensor_id;sensor_type;location;lat;lon;timestamp;P1;durP1;ratioP1;P2;durP2;ratioP2
68140;SDS011;54941;52.220;104.306;2022-12-07T00:00:32;11.43;;;3.45;;
68140;SDS011;54941;52.220;104.306;2022-12-07T00:02:58;7.38;;;3.33;;
68140;SDS011;54941;52.220;104.306;2022-12-07T00:05:26;11.65;;;2.90;;
68140;SDS011;54941;52.220;104.306;2022-12-07T00:07:52;10.48;;;3.38;;
68140;SDS011;54941;52.220;104.306;2022-12-07T00:10:19;11.95;;;3.75;;
68140;SDS011;54941;52.220;104.306;2022-12-07T00:12:45;11.88;;;3.65;;
68140;SDS011;54941;52.220;104.306;2022-12-07T00:15:11;16.83;;;4.30;;
68140;SDS011;54941;52.220;104.306;2022-12-07T00:17:38;10.80;;;3.78;;
68140;SDS011;54941;52.220;104.306;2022-12-07T00:20:05;12.65;;;3.65;;
68140;SDS011;54941;52.220;104.306;2022-12-07T00:22:34;11.27;;;3.88;;
68140;SDS011;54941;52.220;104.306;2022-12-07T00:25:00;7.70;;;3.05;;
68140;SDS011;54941;52.220;104.306;2022-12-07T00:27:26;9.93;;;3.20;;
68140;SDS011;54941;52.220;104.306;2022-12-07T00:29:53;11.75;;;2.88;;
68140;SDS011;54941;52.220;104.306;2022-12-07T00:32:19;10.70;;;3.20;;
68140;SDS011;54941;52.220;104.306;2022-12-07T00:34:46;7.05;;;3.25;;
68140;SDS011;54941;52.220;104.306;2022-12-07T00:37:12;6.75;;;2.50;;
68140;SDS011;54941;52.220;104.306;2022-12-07T00:39:40;8.50;;;2.15;;
68140;SDS011;54941;52.220;104.306;2022-12-07T00:42:06;6.60;;;2.53;;
68140;SDS011;54941;52.220;104.306;2022-12-07T00:44:33;5.80;;;2.65;;
68140;SDS011;54941;52.220;104.306;2022-12-07T00:46:59;5.90;;;1.92;;
68140;SDS011;54941;52.220;104.306;2022-12-07T00:49:25;9.07;;;2.40;;
68140;SDS011;54941;52.220;104.306;2022-12-07T00:51:52;5.50;;;1.83;;
68140;SDS011;54941;52.220;104.306;2022-12-07T00:54:18;4.63;;;1.60;;
68140;SDS011;54941;52.220;104.306;2022-12-07T00:56:46;7.07;;;1.98;;
68140;SDS011;54941;52.220;104.306;2022-12-07T00:59:13;5.65;;;1.92;;
68140;SDS011;54941;52.220;104.306;2022-12-07T01:01:39;4.15;;;1.75;;
68140;SDS011;54941;52.220;104.306;2022-12-07T01:04:06;7.13;;;2.35;;
68140;SDS011;54941;52.220;104.306;2022-12-07T01:06:32;5.95;;;2.38;;
68140;SDS011;54941;52.220;104.306;2022-12-07T01:08:59;6.85;;;1.58;;
68140;SDS011;54941;52.220;104.306;2022-12-07T01:11:26;6.25;;;1.85;;
68140;SDS011;54941;52.220;104.306;2022-12-07T01:13:56;4.53;;;1.80;;
68140;SDS011;54941;52.220;104.306;2022-12-07T01:16:24;5.22;;;2.15;;
68140;SDS011;54941;52.220;104.306;2022-12-07T01:18:52;6.82;;;2.28;;
68140;SDS011;54941;52.220;104.306;2022-12-07T01:21:20;5.75;;;2.33;;
68140;SDS011;54941;52.220;104.306;2022-12-07T01:23:48;5.40;;;1.80;;
68140;SDS011;54941;52.220;104.306;2022-12-07T01:26:15;5.05;;;1.80;;
68140;SDS011;54941;52.220;104.306;2022-12-07T01:28:43;7.35;;;3.03;;
68140;SDS011;54941;52.220;104.306;2022-12-07T01:31:11;11.48;;;3.97;;
68140;SDS011;54941;52.220;104.306;2022-12-07T01:33:39;9.20;;;3.38;;
68140;SDS011;54941;52.220;104.306;2022-12-07T01:36:06;9.05;;;3.65;;
68140;SDS011;54941;52.220;104.306;2022-12-07T01:38:37;6.53;;;2.35;;
68140;SDS011;54941;52.220;104.306;2022-12-07T01:41:03;8.10;;;2.70;;
68140;SDS011;54941;52.220;104.306;2022-12-07T01:43:31;7.28;;;2.55;;
68140;SDS011;54941;52.220;104.306;2022-12-07T01:45:58;6.18;;;2.28;;
68140;SDS011;54941;52.220;104.306;2022-12-07T01:48:27;7.25;;;2.45;;
68140;SDS011;54941;52.220;104.306;2022-12-07T01:50:59;5.97;;;2.10;;
68140;SDS011;54941;52.220;104.306;2022-12-07T01:53:29;4.63;;;1.75;;
68140;SDS011;54941;52.220;104.306;2022-12-07T01:55:57;6.32;;;2.47;;
68140;SDS011;54941;52.220;104.306;2022-12-07T01:58:25;6.00;;;2.42;;
68140;SDS011;54941;52.220;104.306;2022-12-07T02:00:51;5.00;;;1.60;;
68140;SDS011;54941;52.220;104.306;2022-12-07T02:03:18;3.75;;;1.40;;
68140;SDS011;54941;52.220;104.306;2022-12-07T02:05:50;3.20;;;1.45;;
68140;SDS011;54941;52.220;104.306;2022-12-07T02:08:18;4.72;;;1.52;;
68140;SDS011;54941;52.220;104.306;2022-12-07T02:10:45;4.60;;;1.50;;
68140;SDS011;54941;52.220;104.306;2022-12-07T02:13:12;2.78;;;1.45;;
68140;SDS011;54941;52.220;104.306;2022-12-07T02:15:44;5.10;;;1.30;;
68140;SDS011;54941;52.220;104.306;2022-12-07T02:18:25;4.13;;;1.42;;
68140;SDS011;54941;52.220;104.306;2022-12-07T02:21:05;4.05;;;1.33;;
68140;SDS011;54941;52.220;104.306;2022-12-07T02:23:40;4.95;;;1.50;;
68140;SDS011;54941;52.220;104.306;2022-12-07T02:26:31;2.40;;;1.02;;
68140;SDS011;54941;52.220;104.306;2022-12-07T02:29:19;5.45;;;2.83;;
68140;SDS011;54941;52.220;104.306;2022-12-07T02:31:50;8.05;;;3.17;;
68140;SDS011;54941;52.220;104.306;2022-12-07T02:34:28;5.85;;;1.40;;
68140;SDS011;54941;52.220;104.306;2022-12-07T02:37:00;4.20;;;1.48;;
68140;SDS011;54941;52.220;104.306;2022-12-07T02:39:34;4.07;;;1.00;;
68140;SDS011;54941;52.220;104.306;2022-12-07T02:42:09;4.22;;;1.38;;
68140;SDS011;54941;52.220;104.306;2022-12-07T02:44:43;5.72;;;1.70;;
68140;SDS011;54941;52.220;104.306;2022-12-07T02:49:40;4.72;;;1.80;;
68140;SDS011;54941;52.220;104.306;2022-12-07T02:52:07;7.22;;;1.77;;
68140;SDS011;54941;52.220;104.306;2022-12-07T02:54:35;7.63;;;2.78;;
68140;SDS011;54941;52.220;104.306;2022-12-07T02:57:03;7.28;;;2.70;;
68140;SDS011;54941;52.220;104.306;2022-12-07T02:59:42;8.40;;;3.10;;
68140;SDS011;54941;52.220;104.306;2022-12-07T03:02:24;7.43;;;2.38;;
68140;SDS011;54941;52.220;104.306;2022-12-07T03:05:00;11.00;;;3.75;;
68140;SDS011;54941;52.220;104.306;2022-12-07T03:07:37;13.52;;;4.80;;
68140;SDS011;54941;52.220;104.306;2022-12-07T03:10:14;9.80;;;3.88;;
68140;SDS011;54941;52.220;104.306;2022-12-07T03:12:46;11.93;;;3.22;;
68140;SDS011;54941;52.220;104.306;2022-12-07T03:15:21;7.32;;;2.88;;
68140;SDS011;54941;52.220;104.306;2022-12-07T03:20:21;11.20;;;3.20;;
68140;SDS011;54941;52.220;104.306;2022-12-07T03:22:50;7.72;;;3.00;;
68140;SDS011;54941;52.220;104.306;2022-12-07T03:25:18;8.77;;;3.00;;
68140;SDS011;54941;52.220;104.306;2022-12-07T03:27:46;8.02;;;3.33;;
68140;SDS011;54941;52.220;104.306;2022-12-07T03:30:19;10.25;;;3.05;;
68140;SDS011;54941;52.220;104.306;2022-12-07T03:32:48;10.60;;;3.47;;
68140;SDS011;54941;52.220;104.306;2022-12-07T03:35:20;12.80;;;3.90;;
68140;SDS011;54941;52.220;104.306;2022-12-07T03:37:51;10.25;;;3.78;;
68140;SDS011;54941;52.220;104.306;2022-12-07T03:40:22;13.82;;;3.38;;
68140;SDS011;54941;52.220;104.306;2022-12-07T03:42:53;10.50;;;3.42;;
68140;SDS011;54941;52.220;104.306;2022-12-07T03:45:23;12.85;;;4.30;;
68140;SDS011;54941;52.220;104.306;2022-12-07T03:48:00;10.05;;;2.70;;
68140;SDS011;54941;52.220;104.306;2022-12-07T03:50:35;10.98;;;3.33;;
68140;SDS011;54941;52.220;104.306;2022-12-07T03:53:09;12.82;;;3.80;;
68140;SDS011;54941;52.220;104.306;2022-12-07T03:55:41;9.85;;;3.28;;
68140;SDS011;54941;52.220;104.306;2022-12-07T03:58:11;13.50;;;3.90;;
68140;SDS011;54941;52.220;104.306;2022-12-07T04:00:41;12.38;;;3.13;;
68140;SDS011;54941;52.220;104.306;2022-12-07T04:03:09;9.15;;;3.03;;
68140;SDS011;54941;52.220;104.306;2022-12-07T04:05:35;12.18;;;3.55;;
68140;SDS011;54941;52.220;104.306;2022-12-07T04:08:02;13.93;;;3.83;;
68140;SDS011;54941;52.220;104.306;2022-12-07T04:10:28;15.23;;;4.57;;
68140;SDS011;54941;52.220;104.306;2022-12-07T04:12:55;12.32;;;4.53;;
68140;SDS011;54941;52.220;104.306;2022-12-07T04:15:21;16.23;;;5.00;;
68140;SDS011;54941;52.220;104.306;2022-12-07T04:17:49;13.82;;;5.60;;
68140;SDS011;54941;52.220;104.306;2022-12-07T04:20:16;10.82;;;3.97;;
68140;SDS011;54941;52.220;104.306;2022-12-07T04:22:42;12.30;;;4.20;;
68140;SDS011;54941;52.220;104.306;2022-12-07T04:25:08;7.60;;;2.75;;
68140;SDS011;54941;52.220;104.306;2022-12-07T04:27:35;9.68;;;3.22;;
68140;SDS011;54941;52.220;104.306;2022-12-07T04:30:01;9.75;;;2.97;;
68140;SDS011;54941;52.220;104.306;2022-12-07T04:32:30;10.77;;;3.05;;
68140;SDS011;54941;52.220;104.306;2022-12-07T04:34:58;6.45;;;1.80;;
68140;SDS011;54941;52.220;104.306;2022-12-07T04:37:24;4.85;;;1.50;;
68140;SDS011;54941;52.220;104.306;2022-12-07T04:39:51;6.07;;;1.80;;
68140;SDS011;54941;52.220;104.306;2022-12-07T04:42:17;3.78;;;1.67;;
68140;SDS011;54941;52.220;104.306;2022-12-07T04:44:46;5.18;;;1.70;;
68140;SDS011;54941;52.220;104.306;2022-12-07T04:47:13;5.55;;;1.48;;
68140;SDS011;54941;52.220;104.306;2022-12-07T04:49:39;2.83;;;1.40;;
68140;SDS011;54941;52.220;104.306;2022-12-07T04:52:07;2.78;;;1.08;;
68140;SDS011;54941;52.220;104.306;2022-12-07T04:54:33;2.22;;;0.80;;
68140;SDS011;54941;52.220;104.306;2022-12-07T04:57:00;2.75;;;1.15;;
68140;SDS011;54941;52.220;104.306;2022-12-07T04:59:26;8.80;;;1.48;;
68140;SDS011;54941;52.220;104.306;2022-12-07T05:01:52;7.15;;;2.00;;
68140;SDS011;54941;52.220;104.306;2022-12-07T05:04:19;9.55;;;2.50;;
68140;SDS011;54941;52.220;104.306;2022-12-07T05:06:48;8.25;;;2.58;;
68140;SDS011;54941;52.220;104.306;2022-12-07T05:09:16;5.28;;;2.15;;
68140;SDS011;54941;52.220;104.306;2022-12-07T05:11:43;8.07;;;2.60;;
68140;SDS011;54941;52.220;104.306;2022-12-07T05:14:10;6.32;;;2.53;;
68140;SDS011;54941;52.220;104.306;2022-12-07T05:16:38;5.63;;;2.15;;
68140;SDS011;54941;52.220;104.306;2022-12-07T05:19:05;4.78;;;1.88;;
68140;SDS011;54941;52.220;104.306;2022-12-07T05:21:32;7.18;;;2.60;;
68140;SDS011;54941;52.220;104.306;2022-12-07T05:23:59;3.05;;;1.40;;
68140;SDS011;54941;52.220;104.306;2022-12-07T05:26:27;4.07;;;1.23;;
68140;SDS011;54941;52.220;104.306;2022-12-07T05:28:54;3.17;;;1.50;;
68140;SDS011;54941;52.220;104.306;2022-12-07T05:31:22;4.28;;;1.33;;
68140;SDS011;54941;52.220;104.306;2022-12-07T05:33:49;4.18;;;1.33;;
68140;SDS011;54941;52.220;104.306;2022-12-07T05:36:15;4.65;;;1.58;;
68140;SDS011;54941;52.220;104.306;2022-12-07T05:38:42;3.60;;;1.42;;
68140;SDS011;54941;52.220;104.306;2022-12-07T05:41:08;6.03;;;1.90;;
68140;SDS011;54941;52.220;104.306;2022-12-07T05:43:40;4.88;;;2.10;;
68140;SDS011;54941;52.220;104.306;2022-12-07T05:46:06;5.85;;;2.20;;
68140;SDS011;54941;52.220;104.306;2022-12-07T05:48:33;5.40;;;1.95;;
68140;SDS011;54941;52.220;104.306;2022-12-07T05:50:59;3.78;;;1.20;;
68140;SDS011;54941;52.220;104.306;2022-12-07T05:53:25;3.72;;;1.27;;
68140;SDS011;54941;52.220;104.306;2022-12-07T05:55:52;3.50;;;1.25;;
68140;SDS011;54941;52.220;104.306;2022-12-07T05:58:18;4.57;;;1.52;;
68140;SDS011;54941;52.220;104.306;2022-12-07T06:00:46;3.70;;;1.33;;
68140;SDS011;54941;52.220;104.306;2022-12-07T06:03:12;4.68;;;1.23;;
68140;SDS011;54941;52.220;104.306;2022-12-07T06:05:39;2.72;;;0.85;;
68140;SDS011;54941;52.220;104.306;2022-12-07T06:08:05;3.55;;;1.20;;
68140;SDS011;54941;52.220;104.306;2022-12-07T06:10:32;3.33;;;1.33;;
68140;SDS011;54941;52.220;104.306;2022-12-07T06:12:58;3.13;;;1.23;;
68140;SDS011;54941;52.220;104.306;2022-12-07T06:15:25;2.05;;;0.90;;
68140;SDS011;54941;52.220;104.306;2022-12-07T06:17:52;3.03;;;1.23;;
68140;SDS011;54941;52.220;104.306;2022-12-07T06:20:19;4.82;;;1.33;;
68140;SDS011;54941;52.220;104.306;2022-12-07T06:22:45;3.35;;;1.40;;
68140;SDS011;54941;52.220;104.306;2022-12-07T06:25:12;4.28;;;1.40;;
68140;SDS011;54941;52.220;104.306;2022-12-07T06:27:39;3.78;;;1.90;;
68140;SDS011;54941;52.220;104.306;2022-12-07T06:30:06;2.50;;;1.10;;
68140;SDS011;54941;52.220;104.306;2022-12-07T06:32:33;3.13;;;0.85;;
68140;SDS011;54941;52.220;104.306;2022-12-07T06:35:01;3.33;;;1.02;;
68140;SDS011;54941;52.220;104.306;2022-12-07T06:37:28;3.92;;;1.02;;
68140;SDS011;54941;52.220;104.306;2022-12-07T06:39:55;4.93;;;1.17;;
68140;SDS011;54941;52.220;104.306;2022-12-07T06:42:21;4.15;;;1.60;;
68140;SDS011;54941;52.220;104.306;2022-12-07T06:44:48;4.18;;;1.40;;
68140;SDS011;54941;52.220;104.306;2022-12-07T06:47:14;5.07;;;2.03;;
68140;SDS011;54941;52.220;104.306;2022-12-07T06:49:40;4.78;;;1.60;;
68140;SDS011;54941;52.220;104.306;2022-12-07T06:52:08;6.25;;;1.60;;
68140;SDS011;54941;52.220;104.306;2022-12-07T06:54:35;7.03;;;2.08;;
68140;SDS011;54941;52.220;104.306;2022-12-07T06:57:01;7.32;;;1.92;;
68140;SDS011;54941;52.220;104.306;2022-12-07T06:59:27;7.68;;;2.08;;
68140;SDS011;54941;52.220;104.306;2022-12-07T07:01:54;4.38;;;1.25;;
68140;SDS011;54941;52.220;104.306;2022-12-07T07:04:20;7.10;;;2.15;;
68140;SDS011;54941;52.220;104.306;2022-12-07T07:06:46;4.43;;;1.70;;
68140;SDS011;54941;52.220;104.306;2022-12-07T07:09:14;6.05;;;2.08;;
68140;SDS011;54941;52.220;104.306;2022-12-07T07:11:41;6.78;;;2.08;;
68140;SDS011;54941;52.220;104.306;2022-12-07T07:14:07;5.07;;;1.98;;
68140;SDS011;54941;52.220;104.306;2022-12-07T07:16:33;4.53;;;1.70;;
68140;SDS011;54941;52.220;104.306;2022-12-07T07:19:00;4.90;;;2.17;;
68140;SDS011;54941;52.220;104.306;2022-12-07T07:21:26;4.80;;;1.98;;
68140;SDS011;54941;52.220;104.306;2022-12-07T07:23:52;4.53;;;1.65;;
68140;SDS011;54941;52.220;104.306;2022-12-07T07:26:20;4.03;;;1.90;;
68140;SDS011;54941;52.220;104.306;2022-12-07T07:28:47;3.03;;;1.48;;
68140;SDS011;54941;52.220;104.306;2022-12-07T07:31:13;3.40;;;1.70;;
68140;SDS011;54941;52.220;104.306;2022-12-07T07:33:39;4.40;;;1.80;;
68140;SDS011;54941;52.220;104.306;2022-12-07T07:36:06;4.72;;;2.40;;
68140;SDS011;54941;52.220;104.306;2022-12-07T07:38:33;4.53;;;1.90;;
68140;SDS011;54941;52.220;104.306;2022-12-07T07:40:59;4.75;;;1.77;;
68140;SDS011;54941;52.220;104.306;2022-12-07T07:43:27;7.88;;;2.35;;
68140;SDS011;54941;52.220;104.306;2022-12-07T07:45:53;5.28;;;1.95;;
68140;SDS011;54941;52.220;104.306;2022-12-07T07:48:20;5.95;;;2.00;;
68140;SDS011;54941;52.220;104.306;2022-12-07T07:50:46;5.30;;;2.05;;
68140;SDS011;54941;52.220;104.306;2022-12-07T07:53:12;5.72;;;2.17;;
68140;SDS011;54941;52.220;104.306;2022-12-07T07:55:39;7.95;;;2.70;;
68140;SDS011;54941;52.220;104.306;2022-12-07T07:58:05;6.20;;;2.55;;
68140;SDS011;54941;52.220;104.306;2022-12-07T08:00:33;7.60;;;2.35;;
68140;SDS011;54941;52.220;104.306;2022-12-07T08:02:59;7.47;;;2.30;;
68140;SDS011;54941;52.220;104.306;2022-12-07T08:05:43;9.80;;;3.72;;
68140;SDS011;54941;52.220;104.306;2022-12-07T08:08:13;8.93;;;3.22;;
68140;SDS011;54941;52.220;104.306;2022-12-07T08:10:47;9.70;;;2.75;;
68140;SDS011;54941;52.220;104.306;2022-12-07T08:13:15;9.77;;;3.13;;
68140;SDS011;54941;52.220;104.306;2022-12-07T08:15:43;7.55;;;2.90;;
68140;SDS011;54941;52.220;104.306;2022-12-07T08:18:11;9.15;;;3.05;;
68140;SDS011;54941;52.220;104.306;2022-12-07T08:20:38;5.57;;;2.70;;
68140;SDS011;54941;52.220;104.306;2022-12-07T08:23:05;6.72;;;2.63;;
68140;SDS011;54941;52.220;104.306;2022-12-07T08:25:33;8.27;;;3.00;;
68140;SDS011;54941;52.220;104.306;2022-12-07T08:27:59;7.18;;;3.13;;
68140;SDS011;54941;52.220;104.306;2022-12-07T08:30:26;9.27;;;3.33;;
68140;SDS011;54941;52.220;104.306;2022-12-07T08:32:54;15.40;;;5.20;;
68140;SDS011;54941;52.220;104.306;2022-12-07T08:35:21;15.77;;;5.38;;
68140;SDS011;54941;52.220;104.306;2022-12-07T08:37:47;14.60;;;6.25;;
68140;SDS011;54941;52.220;104.306;2022-12-07T08:40:14;11.00;;;5.20;;
68140;SDS011;54941;52.220;104.306;2022-12-07T08:42:41;12.90;;;5.38;;
68140;SDS011;54941;52.220;104.306;2022-12-07T08:45:08;8.90;;;3.90;;
68140;SDS011;54941;52.220;104.306;2022-12-07T08:47:37;8.13;;;4.28;;
68140;SDS011;54941;52.220;104.306;2022-12-07T08:50:09;9.25;;;4.55;;
68140;SDS011;54941;52.220;104.306;2022-12-07T08:52:36;11.45;;;5.32;;
68140;SDS011;54941;52.220;104.306;2022-12-07T08:55:05;9.18;;;4.45;;
68140;SDS011;54941;52.220;104.306;2022-12-07T08:57:32;10.07;;;4.43;;
68140;SDS011;54941;52.220;104.306;2022-12-07T09:00:01;11.25;;;4.57;;
68140;SDS011;54941;52.220;104.306;2022-12-07T09:02:30;13.15;;;4.80;;
68140;SDS011;54941;52.220;104.306;2022-12-07T09:04:57;8.60;;;4.43;;
68140;SDS011;54941;52.220;104.306;2022-12-07T09:07:25;9.10;;;4.10;;
68140;SDS011;54941;52.220;104.306;2022-12-07T09:09:52;9.85;;;4.47;;
68140;SDS011;54941;52.220;104.306;2022-12-07T09:12:19;10.68;;;4.20;;
68140;SDS011;54941;52.220;104.306;2022-12-07T09:14:45;12.98;;;4.45;;
68140;SDS011;54941;52.220;104.306;2022-12-07T09:17:12;11.90;;;5.32;;
68140;SDS011;54941;52.220;104.306;2022-12-07T09:19:39;18.98;;;7.70;;
68140;SDS011;54941;52.220;104.306;2022-12-07T09:22:05;16.95;;;8.52;;
68140;SDS011;54941;52.220;104.306;2022-12-07T09:24:33;22.80;;;11.95;;
68140;SDS011;54941;52.220;104.306;2022-12-07T09:27:00;14.90;;;5.85;;
68140;SDS011;54941;52.220;104.306;2022-12-07T09:29:26;13.27;;;5.53;;
68140;SDS011;54941;52.220;104.306;2022-12-07T09:31:52;11.30;;;4.80;;
68140;SDS011;54941;52.220;104.306;2022-12-07T09:34:19;14.30;;;5.35;;
68140;SDS011;54941;52.220;104.306;2022-12-07T09:36:45;12.45;;;5.30;;
68140;SDS011;54941;52.220;104.306;2022-12-07T09:39:12;12.93;;;4.25;;
68140;SDS011;54941;52.220;104.306;2022-12-07T09:41:39;14.32;;;5.97;;
68140;SDS011;54941;52.220;104.306;2022-12-07T09:44:09;12.20;;;6.22;;
68140;SDS011;54941;52.220;104.306;2022-12-07T09:46:39;13.95;;;6.43;;
68140;SDS011;54941;52.220;104.306;2022-12-07T09:49:09;15.35;;;6.07;;
68140;SDS011;54941;52.220;104.306;2022-12-07T09:51:40;15.90;;;8.05;;
68140;SDS011;54941;52.220;104.306;2022-12-07T09:54:07;16.38;;;7.97;;
68140;SDS011;54941;52.220;104.306;2022-12-07T09:56:38;12.95;;;5.93;;
68140;SDS011;54941;52.220;104.306;2022-12-07T09:59:05;11.02;;;5.32;;
68140;SDS011;54941;52.220;104.306;2022-12-07T10:01:38;11.52;;;5.32;;
68140;SDS011;54941;52.220;104.306;2022-12-07T10:04:09;17.08;;;5.25;;
68140;SDS011;54941;52.220;104.306;2022-12-07T10:06:42;16.38;;;6.50;;
68140;SDS011;54941;52.220;104.306;2022-12-07T10:09:09;17.85;;;8.35;;
68140;SDS011;54941;52.220;104.306;2022-12-07T10:14:27;20.48;;;10.88;;
68140;SDS011;54941;52.220;104.306;2022-12-07T10:16:55;22.90;;;8.85;;
68140;SDS011;54941;52.220;104.306;2022-12-07T10:19:23;17.48;;;8.77;;
68140;SDS011;54941;52.220;104.306;2022-12-07T10:22:04;15.73;;;6.78;;
68140;SDS011;54941;52.220;104.306;2022-12-07T10:24:35;15.07;;;7.03;;
68140;SDS011;54941;52.220;104.306;2022-12-07T10:27:03;13.95;;;6.55;;
68140;SDS011;54941;52.220;104.306;2022-12-07T10:29:30;16.88;;;6.13;;
68140;SDS011;54941;52.220;104.306;2022-12-07T10:31:59;16.52;;;7.53;;
68140;SDS011;54941;52.220;104.306;2022-12-07T10:34:27;15.52;;;6.72;;
68140;SDS011;54941;52.220;104.306;2022-12-07T10:37:07;15.40;;;6.90;;
68140;SDS011;54941;52.220;104.306;2022-12-07T10:39:41;15.88;;;5.78;;
68140;SDS011;54941;52.220;104.306;2022-12-07T10:42:15;15.90;;;6.65;;
68140;SDS011;54941;52.220;104.306;2022-12-07T10:44:42;18.65;;;6.82;;
68140;SDS011;54941;52.220;104.306;2022-12-07T10:47:13;21.83;;;7.28;;
68140;SDS011;54941;52.220;104.306;2022-12-07T10:52:45;15.95;;;7.57;;
68140;SDS011;54941;52.220;104.306;2022-12-07T10:55:33;16.63;;;7.03;;
68140;SDS011;54941;52.220;104.306;2022-12-07T10:58:15;15.80;;;6.55;;
68140;SDS011;54941;52.220;104.306;2022-12-07T11:00:54;14.32;;;6.22;;
68140;SDS011;54941;52.220;104.306;2022-12-07T11:03:34;16.83;;;6.32;;
68140;SDS011;54941;52.220;104.306;2022-12-07T11:06:10;18.10;;;7.35;;
68140;SDS011;54941;52.220;104.306;2022-12-07T11:11:23;18.85;;;7.15;;
68140;SDS011;54941;52.220;104.306;2022-12-07T11:14:01;15.05;;;6.13;;
68140;SDS011;54941;52.220;104.306;2022-12-07T11:16:40;16.08;;;7.07;;
68140;SDS011;54941;52.220;104.306;2022-12-07T11:19:27;17.35;;;7.50;;
68140;SDS011;54941;52.220;104.306;2022-12-07T11:22:14;18.98;;;8.65;;
68140;SDS011;54941;52.220;104.306;2022-12-07T11:24:47;18.50;;;7.63;;
68140;SDS011;54941;52.220;104.306;2022-12-07T11:27:23;16.60;;;7.15;;
68140;SDS011;54941;52.220;104.306;2022-12-07T11:32:59;21.58;;;8.27;;
68140;SDS011;54941;52.220;104.306;2022-12-07T11:35:38;20.25;;;8.65;;
68140;SDS011;54941;52.220;104.306;2022-12-07T11:38:12;22.13;;;8.38;;
68140;SDS011;54941;52.220;104.306;2022-12-07T11:40:43;20.02;;;9.10;;
68140;SDS011;54941;52.220;104.306;2022-12-07T11:43:15;20.25;;;8.82;;
68140;SDS011;54941;52.220;104.306;2022-12-07T11:45:50;23.80;;;9.25;;
68140;SDS011;54941;52.220;104.306;2022-12-07T11:48:27;18.25;;;8.02;;
68140;SDS011;54941;52.220;104.306;2022-12-07T11:50:58;21.20;;;8.10;;
68140;SDS011;54941;52.220;104.306;2022-12-07T11:53:27;20.25;;;8.52;;
68140;SDS011;54941;52.220;104.306;2022-12-07T11:56:00;21.25;;;9.10;;
68140;SDS011;54941;52.220;104.306;2022-12-07T11:58:39;22.58;;;9.10;;
68140;SDS011;54941;52.220;104.306;2022-12-07T12:04:13;19.88;;;9.10;;
68140;SDS011;54941;52.220;104.306;2022-12-07T12:06:49;25.45;;;10.07;;
68140;SDS011;54941;52.220;104.306;2022-12-07T12:09:16;23.70;;;9.57;;
68140;SDS011;54941;52.220;104.306;2022-12-07T12:11:51;20.35;;;9.07;;
68140;SDS011;54941;52.220;104.306;2022-12-07T12:14:42;23.92;;;9.88;;
68140;SDS011;54941;52.220;104.306;2022-12-07T12:20:28;18.17;;;8.10;;
68140;SDS011;54941;52.220;104.306;2022-12-07T12:22:59;28.35;;;11.60;;
68140;SDS011;54941;52.220;104.306;2022-12-07T12:25:35;22.55;;;9.38;;
68140;SDS011;54941;52.220;104.306;2022-12-07T12:28:05;19.90;;;8.90;;
68140;SDS011;54941;52.220;104.306;2022-12-07T12:30:43;16.55;;;7.60;;
68140;SDS011;54941;52.220;104.306;2022-12-07T12:33:13;17.90;;;8.50;;
68140;SDS011;54941;52.220;104.306;2022-12-07T12:35:47;22.98;;;7.97;;
68140;SDS011;54941;52.220;104.306;2022-12-07T12:38:50;17.38;;;7.80;;
68140;SDS011;54941;52.220;104.306;2022-12-07T12:50:21;16.40;;;6.05;;
68140;SDS011;54941;52.220;104.306;2022-12-07T12:52:53;13.23;;;5.90;;
68140;SDS011;54941;52.220;104.306;2022-12-07T12:58:32;19.85;;;9.23;;
68140;SDS011;54941;52.220;104.306;2022-12-07T13:10:27;16.25;;;6.25;;
68140;SDS011;54941;52.220;104.306;2022-12-07T13:13:29;13.75;;;4.97;;
68140;SDS011;54941;52.220;104.306;2022-12-07T13:22:39;12.60;;;5.60;;
68140;SDS011;54941;52.220;104.306;2022-12-07T13:25:10;15.23;;;5.25;;
68140;SDS011;54941;52.220;104.306;2022-12-07T13:30:09;11.57;;;4.63;;
68140;SDS011;54941;52.220;104.306;2022-12-07T13:32:40;10.13;;;5.25;;
68140;SDS011;54941;52.220;104.306;2022-12-07T13:37:54;14.95;;;6.85;;
68140;SDS011;54941;52.220;104.306;2022-12-07T13:40:23;16.80;;;7.70;;
68140;SDS011;54941;52.220;104.306;2022-12-07T13:42:57;16.65;;;7.53;;
68140;SDS011;54941;52.220;104.306;2022-12-07T13:45:25;19.75;;;6.70;;
68140;SDS011;54941;52.220;104.306;2022-12-07T13:48:02;13.23;;;6.10;;
68140;SDS011;54941;52.220;104.306;2022-12-07T13:50:30;14.55;;;7.22;;
68140;SDS011;54941;52.220;104.306;2022-12-07T13:52:57;14.35;;;6.95;;
68140;SDS011;54941;52.220;104.306;2022-12-07T13:55:28;17.40;;;6.57;;
68140;SDS011;54941;52.220;104.306;2022-12-07T13:57:55;14.85;;;7.13;;
68140;SDS011;54941;52.220;104.306;2022-12-07T14:00:23;18.30;;;6.30;;
68140;SDS011;54941;52.220;104.306;2022-12-07T14:02:55;19.95;;;7.72;;
68140;SDS011;54941;52.220;104.306;2022-12-07T14:05:23;14.32;;;6.45;;
68140;SDS011;54941;52.220;104.306;2022-12-07T14:07:53;18.02;;;7.47;;
68140;SDS011;54941;52.220;104.306;2022-12-07T14:12:57;16.40;;;6.80;;
68140;SDS011;54941;52.220;104.306;2022-12-07T14:15:25;16.30;;;7.15;;
68140;SDS011;54941;52.220;104.306;2022-12-07T14:17:55;15.57;;;6.72;;
68140;SDS011;54941;52.220;104.306;2022-12-07T14:20:29;19.27;;;6.97;;
68140;SDS011;54941;52.220;104.306;2022-12-07T14:22:57;18.77;;;7.50;;
68140;SDS011;54941;52.220;104.306;2022-12-07T14:25:24;16.27;;;8.23;;
68140;SDS011;54941;52.220;104.306;2022-12-07T14:27:52;16.70;;;6.93;;
68140;SDS011;54941;52.220;104.306;2022-12-07T14:30:22;20.80;;;8.15;;
68140;SDS011;54941;52.220;104.306;2022-12-07T14:32:51;19.60;;;8.13;;
68140;SDS011;54941;52.220;104.306;2022-12-07T14:35:19;18.50;;;8.35;;
68140;SDS011;54941;52.220;104.306;2022-12-07T14:37:49;24.05;;;7.95;;
68140;SDS011;54941;52.220;104.306;2022-12-07T14:40:16;22.48;;;8.32;;
68140;SDS011;54941;52.220;104.306;2022-12-07T14:42:44;19.48;;;7.45;;
68140;SDS011;54941;52.220;104.306;2022-12-07T14:45:16;21.92;;;7.35;;
68140;SDS011;54941;52.220;104.306;2022-12-07T14:47:46;17.63;;;7.53;;
68140;SDS011;54941;52.220;104.306;2022-12-07T14:50:13;24.95;;;9.13;;
68140;SDS011;54941;52.220;104.306;2022-12-07T14:52:42;19.90;;;8.32;;
68140;SDS011;54941;52.220;104.306;2022-12-07T14:55:15;19.08;;;8.38;;
68140;SDS011;54941;52.220;104.306;2022-12-07T14:57:48;22.48;;;7.63;;
68140;SDS011;54941;52.220;104.306;2022-12-07T15:00:15;21.35;;;9.00;;
68140;SDS011;54941;52.220;104.306;2022-12-07T15:02:42;28.42;;;10.60;;
68140;SDS011;54941;52.220;104.306;2022-12-07T15:05:11;20.33;;;8.13;;
68140;SDS011;54941;52.220;104.306;2022-12-07T15:07:37;20.73;;;8.38;;
68140;SDS011;54941;52.220;104.306;2022-12-07T15:10:05;23.48;;;8.13;;
68140;SDS011;54941;52.220;104.306;2022-12-07T15:12:38;23.55;;;7.90;;
68140;SDS011;54941;52.220;104.306;2022-12-07T15:15:05;15.15;;;7.18;;
68140;SDS011;54941;52.220;104.306;2022-12-07T15:17:32;15.60;;;6.80;;
68140;SDS011;54941;52.220;104.306;2022-12-07T15:19:58;17.23;;;7.13;;
68140;SDS011;54941;52.220;104.306;2022-12-07T15:22:26;20.08;;;7.30;;
68140;SDS011;54941;52.220;104.306;2022-12-07T15:24:53;14.45;;;6.18;;
68140;SDS011;54941;52.220;104.306;2022-12-07T15:27:19;19.10;;;6.68;;